createdAt,value
2017-12-10T00:02:01.954Z,10.93
2017-12-10T00:04:31.465Z,9.93
2017-12-10T00:07:00.973Z,9.98
2017-12-10T00:09:30.482Z,8.88
2017-12-10T00:12:00.223Z,11.00
2017-12-10T00:14:29.714Z,9.82
2017-12-10T00:16:59.256Z,11.27
2017-12-10T00:19:28.735Z,8.98
2017-12-10T00:21:58.306Z,9.02
2017-12-10T00:24:27.844Z,9.77
2017-12-10T00:26:57.358Z,9.85
2017-12-10T00:29:26.814Z,8.65
2017-12-10T00:31:56.424Z,9.40
2017-12-10T00:34:25.933Z,7.90
2017-12-10T00:36:55.417Z,8.35
2017-12-10T00:39:24.901Z,7.47
2017-12-10T00:41:54.357Z,9.07
2017-12-10T00:44:23.942Z,8.05
2017-12-10T00:46:53.485Z,8.05
2017-12-10T00:49:22.988Z,14.98
2017-12-10T00:51:52.495Z,7.85
2017-12-10T00:54:22.082Z,8.40
2017-12-10T00:56:51.593Z,9.57
2017-12-10T00:59:21.050Z,6.90
2017-12-10T01:01:50.587Z,8.13
2017-12-10T01:04:20.115Z,8.50
2017-12-10T01:06:49.830Z,7.30
2017-12-10T01:09:19.323Z,7.62
2017-12-10T01:11:48.796Z,8.38
2017-12-10T01:14:18.331Z,8.95
2017-12-10T01:16:47.814Z,7.37
2017-12-10T01:19:17.373Z,7.80
2017-12-10T01:21:46.877Z,7.65
2017-12-10T01:24:16.390Z,8.32
2017-12-10T01:26:45.869Z,6.53
2017-12-10T01:29:15.378Z,6.20
2017-12-10T01:31:44.900Z,7.62
2017-12-10T01:34:14.418Z,7.70
2017-12-10T01:36:43.943Z,6.85
2017-12-10T01:39:13.420Z,6.72
2017-12-10T01:41:42.936Z,5.50
2017-12-10T01:44:12.473Z,5.68
2017-12-10T01:46:41.947Z,6.55
2017-12-10T01:49:11.459Z,5.57
2017-12-10T01:51:40.930Z,7.20
2017-12-10T01:54:10.464Z,4.68
2017-12-10T01:56:39.941Z,4.20
2017-12-10T01:59:09.494Z,3.65
2017-12-10T02:01:39.026Z,4.62
2017-12-10T02:04:08.507Z,4.35
2017-12-10T02:06:38.046Z,3.97
2017-12-10T02:09:07.536Z,4.70
2017-12-10T02:11:37.082Z,5.80
2017-12-10T02:14:06.552Z,3.80
2017-12-10T02:16:36.055Z,5.20
2017-12-10T02:19:05.531Z,5.60
2017-12-10T02:21:35.035Z,5.32
2017-12-10T02:24:04.503Z,4.90
2017-12-10T02:26:34.022Z,5.10
2017-12-10T02:29:03.525Z,5.07
2017-12-10T02:31:33.088Z,5.57
2017-12-10T02:34:02.567Z,4.20
2017-12-10T02:36:32.099Z,5.78
2017-12-10T02:39:01.669Z,6.32
2017-12-10T02:41:31.141Z,6.10
2017-12-10T02:44:00.628Z,5.07
2017-12-10T02:46:30.157Z,8.32
2017-12-10T02:48:59.672Z,5.10
2017-12-10T02:51:29.186Z,4.45
2017-12-10T02:53:58.654Z,5.50
2017-12-10T02:56:28.178Z,7.30
2017-12-10T02:58:57.686Z,4.82
2017-12-10T03:01:27.240Z,6.15
2017-12-10T03:03:56.703Z,5.70
2017-12-10T03:06:26.287Z,4.18
2017-12-10T03:08:55.760Z,5.40
2017-12-10T03:11:25.385Z,4.55
2017-12-10T03:13:54.866Z,5.53
2017-12-10T03:16:24.461Z,4.75
2017-12-10T03:18:54.077Z,9.88
2017-12-10T03:21:26.342Z,4.10
2017-12-10T03:23:55.860Z,5.03
2017-12-10T03:26:25.392Z,5.57
2017-12-10T03:28:54.868Z,4.57
2017-12-10T03:31:24.390Z,4.28
2017-12-10T03:33:53.862Z,5.30
2017-12-10T03:36:23.363Z,5.53
2017-12-10T03:38:52.871Z,3.87
2017-12-10T03:41:22.380Z,3.80
2017-12-10T03:43:51.889Z,3.80
2017-12-10T03:46:21.470Z,4.90
2017-12-10T03:48:50.989Z,6.93
2017-12-10T03:51:20.455Z,4.30
2017-12-10T03:53:50.020Z,4.18
2017-12-10T03:56:19.530Z,4.40
2017-12-10T03:58:49.059Z,4.37
2017-12-10T04:01:18.525Z,3.83
2017-12-10T04:03:48.086Z,3.25
2017-12-10T04:06:17.720Z,4.87
2017-12-10T04:08:47.188Z,3.15
2017-12-10T04:11:16.681Z,6.00
2017-12-10T04:13:46.174Z,3.00
2017-12-10T04:16:15.801Z,6.47
2017-12-10T04:18:45.261Z,3.87
2017-12-10T04:21:14.798Z,4.03
2017-12-10T04:23:44.285Z,4.68
2017-12-10T04:26:13.800Z,4.37
2017-12-10T04:28:43.270Z,3.17
2017-12-10T04:31:12.777Z,2.80
2017-12-10T04:33:42.445Z,4.07
2017-12-10T04:36:11.981Z,3.53
2017-12-10T04:38:41.479Z,6.18
2017-12-10T04:41:10.998Z,3.85
2017-12-10T04:43:40.591Z,3.67
2017-12-10T04:46:10.064Z,6.40
2017-12-10T04:48:39.818Z,2.45
2017-12-10T04:51:09.281Z,2.17
2017-12-10T04:53:38.737Z,2.33
2017-12-10T04:56:08.257Z,3.25
2017-12-10T04:58:37.772Z,2.30
2017-12-10T05:01:07.234Z,3.05
2017-12-10T05:03:36.767Z,3.00
2017-12-10T05:06:06.239Z,2.15
2017-12-10T05:08:35.828Z,3.62
2017-12-10T05:11:05.289Z,2.75
2017-12-10T05:13:34.819Z,2.95
2017-12-10T05:16:04.328Z,2.90
2017-12-10T05:18:33.819Z,2.25
2017-12-10T05:21:03.327Z,3.35
2017-12-10T05:23:32.798Z,2.20
2017-12-10T05:26:02.317Z,3.15
2017-12-10T05:28:31.814Z,2.35
2017-12-10T05:31:01.325Z,3.10
2017-12-10T05:33:30.918Z,2.78
2017-12-10T05:36:00.462Z,2.20
2017-12-10T05:38:29.950Z,2.95
2017-12-10T05:40:59.448Z,5.30
2017-12-10T05:43:28.943Z,2.70
2017-12-10T05:45:58.426Z,5.40
2017-12-10T05:48:27.928Z,2.75
2017-12-10T05:50:57.403Z,6.15
2017-12-10T05:53:26.911Z,2.35
2017-12-10T05:55:56.401Z,1.90
2017-12-10T05:58:25.940Z,2.45
2017-12-10T06:00:55.395Z,4.15
2017-12-10T06:03:24.921Z,2.62
2017-12-10T06:05:54.415Z,2.78
2017-12-10T06:08:23.921Z,2.42
2017-12-10T06:10:53.441Z,2.42
2017-12-10T06:13:22.912Z,2.40
2017-12-10T06:18:13.218Z,2.20
2017-12-10T06:20:42.703Z,2.67
2017-12-10T06:23:12.203Z,2.83
2017-12-10T06:25:41.871Z,1.98
2017-12-10T06:28:11.350Z,2.28
2017-12-10T06:30:40.892Z,3.10
2017-12-10T06:33:10.385Z,2.40
2017-12-10T06:35:39.916Z,2.28
2017-12-10T06:38:09.422Z,2.50
2017-12-10T06:40:38.981Z,2.10
2017-12-10T06:43:08.450Z,1.80
2017-12-10T06:45:37.964Z,1.85
2017-12-10T06:48:07.443Z,1.83
2017-12-10T06:50:36.995Z,2.60
2017-12-10T06:53:06.543Z,1.60
2017-12-10T06:55:36.047Z,1.85
2017-12-10T06:58:05.580Z,1.30
2017-12-10T07:00:35.061Z,1.30
2017-12-10T07:03:04.592Z,1.70
2017-12-10T07:05:34.090Z,1.35
2017-12-10T07:08:03.617Z,1.60
2017-12-10T07:10:33.129Z,3.50
2017-12-10T07:13:02.606Z,1.40
2017-12-10T07:15:32.165Z,2.45
2017-12-10T07:18:01.675Z,1.80
2017-12-10T07:20:31.190Z,1.98
2017-12-10T07:23:00.717Z,2.17
2017-12-10T07:25:30.284Z,1.65
2017-12-10T07:27:59.764Z,1.45
2017-12-10T07:30:29.236Z,1.60
2017-12-10T07:32:58.757Z,1.80
2017-12-10T07:35:28.287Z,1.80
2017-12-10T07:37:57.794Z,1.77
2017-12-10T07:40:27.315Z,1.52
2017-12-10T07:42:56.814Z,1.60
2017-12-10T07:45:26.313Z,1.50
2017-12-10T07:47:55.821Z,1.92
2017-12-10T07:50:25.322Z,1.80
2017-12-10T07:52:54.806Z,1.83
2017-12-10T07:55:24.377Z,1.80
2017-12-10T07:57:53.855Z,2.37
2017-12-10T08:00:23.360Z,1.55
2017-12-10T08:02:52.836Z,1.70
2017-12-10T08:05:22.434Z,2.55
2017-12-10T08:07:51.932Z,1.62
2017-12-10T08:10:21.441Z,1.23
2017-12-10T08:12:50.977Z,1.95
2017-12-10T08:15:20.465Z,1.73
2017-12-10T08:17:49.991Z,2.55
2017-12-10T08:20:19.497Z,1.40
2017-12-10T08:22:49.134Z,2.37
2017-12-10T08:25:18.629Z,1.83
2017-12-10T08:27:48.150Z,1.70
2017-12-10T08:30:17.666Z,1.92
2017-12-10T08:32:47.130Z,1.25
2017-12-10T08:35:16.736Z,1.60
2017-12-10T08:37:46.222Z,1.40
2017-12-10T08:40:15.830Z,1.30
2017-12-10T08:42:45.427Z,1.42
2017-12-10T08:45:14.869Z,1.52
2017-12-10T08:47:44.383Z,1.73
2017-12-10T08:50:13.907Z,1.55
2017-12-10T08:52:43.430Z,1.62
2017-12-10T08:55:12.924Z,1.70
2017-12-10T08:57:42.450Z,1.30
2017-12-10T09:00:11.904Z,1.83
2017-12-10T09:02:41.435Z,1.45
2017-12-10T09:05:10.924Z,2.05
2017-12-10T09:07:40.433Z,1.25
2017-12-10T09:10:09.956Z,1.45
2017-12-10T09:12:39.459Z,1.65
2017-12-10T09:15:08.921Z,1.67
2017-12-10T09:17:38.440Z,1.90
2017-12-10T09:20:08.139Z,1.20
2017-12-10T09:22:37.685Z,1.27
2017-12-10T09:25:07.222Z,1.10
2017-12-10T09:27:36.711Z,1.10
2017-12-10T09:30:06.222Z,1.05
2017-12-10T09:32:35.704Z,1.12
2017-12-10T09:35:05.222Z,2.10
2017-12-10T09:37:34.724Z,1.62
2017-12-10T09:40:04.240Z,1.20
2017-12-10T09:42:33.727Z,1.20
2017-12-10T09:45:03.240Z,1.20
2017-12-10T09:47:32.708Z,1.27
2017-12-10T09:50:02.210Z,2.15
2017-12-10T09:52:31.700Z,1.45
2017-12-10T09:55:01.230Z,1.33
2017-12-10T09:57:30.745Z,1.27
2017-12-10T10:00:00.271Z,2.25
2017-12-10T10:02:29.778Z,1.55
2017-12-10T10:04:59.276Z,2.35
2017-12-10T10:07:28.793Z,1.40
2017-12-10T10:09:58.295Z,1.70
2017-12-10T10:12:27.799Z,1.50
2017-12-10T10:14:57.310Z,1.50
2017-12-10T10:17:26.957Z,1.27
2017-12-10T10:19:56.452Z,1.40
2017-12-10T10:22:25.957Z,1.10
2017-12-10T10:24:55.447Z,1.20
2017-12-10T10:27:24.950Z,1.40
2017-12-10T10:29:54.484Z,1.45
2017-12-10T10:32:24.084Z,1.48
2017-12-10T10:34:53.682Z,1.80
2017-12-10T10:37:23.146Z,1.20
2017-12-10T10:39:52.664Z,1.20
2017-12-10T10:42:22.180Z,1.20
2017-12-10T10:44:51.736Z,1.45
2017-12-10T10:47:21.180Z,1.80
2017-12-10T10:49:50.701Z,1.10
2017-12-10T10:52:20.196Z,1.20
2017-12-10T10:54:49.708Z,1.73
2017-12-10T10:57:19.332Z,1.20
2017-12-10T10:59:48.844Z,1.00
2017-12-10T11:02:18.329Z,1.75
2017-12-10T11:04:47.865Z,1.33
2017-12-10T11:07:17.388Z,1.20
2017-12-10T11:09:46.919Z,1.15
2017-12-10T11:12:16.390Z,1.15
2017-12-10T11:14:45.969Z,1.23
2017-12-10T11:17:15.477Z,1.00
2017-12-10T11:19:45.106Z,1.85
2017-12-10T11:22:14.625Z,1.58
2017-12-10T11:24:44.712Z,1.70
2017-12-10T11:27:14.262Z,1.10
2017-12-10T11:29:43.778Z,1.20
2017-12-10T11:32:13.268Z,1.30
2017-12-10T11:34:42.777Z,1.20
2017-12-10T11:37:12.279Z,1.30
2017-12-10T11:39:41.750Z,2.00
2017-12-10T11:42:11.301Z,1.10
2017-12-10T11:44:40.805Z,1.80
2017-12-10T11:47:10.352Z,1.60
2017-12-10T11:49:39.893Z,1.20
2017-12-10T11:52:09.388Z,1.55
2017-12-10T11:54:38.923Z,1.05
2017-12-10T11:57:08.471Z,1.12
2017-12-10T11:59:37.950Z,1.20
2017-12-10T12:02:07.482Z,1.10
2017-12-10T12:04:36.989Z,1.27
2017-12-10T12:07:06.530Z,1.10
2017-12-10T12:09:36.072Z,1.10
2017-12-10T12:12:05.583Z,1.17
2017-12-10T12:14:35.069Z,1.27
2017-12-10T12:17:04.605Z,1.08
2017-12-10T12:19:34.183Z,2.28
2017-12-10T12:22:03.694Z,1.27
2017-12-10T12:24:33.181Z,1.10
2017-12-10T12:27:02.824Z,1.25
2017-12-10T12:29:32.464Z,1.37
2017-12-10T12:32:01.983Z,1.87
2017-12-10T12:34:31.483Z,1.62
2017-12-10T12:37:00.989Z,1.30
2017-12-10T12:39:30.470Z,1.50
2017-12-10T12:42:00.692Z,1.40
2017-12-10T12:44:30.260Z,1.55
2017-12-10T12:46:59.737Z,1.80
2017-12-10T12:49:29.235Z,3.33
2017-12-10T12:51:58.791Z,2.45
2017-12-10T12:54:28.363Z,4.15
2017-12-10T12:56:57.852Z,5.80
2017-12-10T12:59:27.352Z,3.65
2017-12-10T13:01:56.842Z,3.65
2017-12-10T13:04:26.565Z,3.30
2017-12-10T13:06:56.029Z,4.28
2017-12-10T13:09:25.581Z,4.85
2017-12-10T13:11:55.067Z,7.03
2017-12-10T13:14:24.595Z,7.22
2017-12-10T13:16:54.106Z,5.35
2017-12-10T13:19:23.649Z,2.72
2017-12-10T13:21:53.117Z,2.60
2017-12-10T13:24:22.710Z,4.10
2017-12-10T13:26:52.191Z,4.00
2017-12-10T13:29:21.717Z,2.75
2017-12-10T13:31:51.250Z,3.25
2017-12-10T13:34:20.781Z,3.35
2017-12-10T13:36:50.270Z,3.90
2017-12-10T13:39:19.791Z,2.58
2017-12-10T13:41:49.372Z,2.15
2017-12-10T13:44:18.901Z,3.80
2017-12-10T13:46:48.407Z,5.82
2017-12-10T13:49:17.917Z,11.38
2017-12-10T13:51:47.456Z,5.05
2017-12-10T13:54:16.999Z,3.00
2017-12-10T13:56:46.514Z,3.92
2017-12-10T13:59:16.147Z,3.42
2017-12-10T14:01:45.625Z,3.83
2017-12-10T14:04:15.162Z,7.53
2017-12-10T14:06:44.661Z,3.80
2017-12-10T14:09:14.805Z,4.07
2017-12-10T14:11:44.296Z,3.50
2017-12-10T14:14:13.779Z,4.40
2017-12-10T14:16:43.315Z,5.22
2017-12-10T14:19:12.799Z,5.82
2017-12-10T14:21:42.328Z,4.78
2017-12-10T14:24:11.788Z,9.13
2017-12-10T14:26:41.396Z,3.80
2017-12-10T14:29:10.932Z,3.50
2017-12-10T14:31:40.448Z,7.80
2017-12-10T14:34:09.966Z,5.65
2017-12-10T14:36:39.468Z,5.53
2017-12-10T14:39:09.003Z,4.25
2017-12-10T14:41:38.515Z,4.20
2017-12-10T14:44:08.032Z,2.90
2017-12-10T14:46:37.573Z,4.33
2017-12-10T14:49:07.104Z,4.23
2017-12-10T14:51:36.587Z,5.50
2017-12-10T14:54:06.115Z,4.13
2017-12-10T14:56:35.640Z,3.70
2017-12-10T14:59:05.164Z,6.73
2017-12-10T15:01:34.656Z,3.80
2017-12-10T15:04:04.194Z,5.40
2017-12-10T15:06:33.690Z,4.17
2017-12-10T15:09:03.251Z,3.73
2017-12-10T15:11:32.745Z,4.27
2017-12-10T15:14:02.307Z,2.90
2017-12-10T15:16:31.862Z,4.20
2017-12-10T15:19:01.411Z,5.13
2017-12-10T15:21:30.921Z,5.30
2017-12-10T15:24:00.523Z,3.73
2017-12-10T15:26:30.010Z,3.73
2017-12-10T15:28:59.518Z,3.37
2017-12-10T15:31:29.042Z,3.80
2017-12-10T15:33:58.556Z,6.10
2017-12-10T15:38:54.118Z,4.60
2017-12-10T15:41:23.653Z,5.20
2017-12-10T15:43:53.158Z,7.07
2017-12-10T15:46:22.651Z,4.33
2017-12-10T15:48:52.428Z,4.30
2017-12-10T15:51:21.906Z,3.83
2017-12-10T15:53:51.579Z,4.03
2017-12-10T15:56:21.126Z,3.13
2017-12-10T15:58:50.695Z,7.30
2017-12-10T16:01:20.230Z,12.63
2017-12-10T16:03:49.729Z,3.70
2017-12-10T16:06:19.372Z,5.20
2017-12-10T16:08:48.881Z,7.40
2017-12-10T16:11:18.396Z,6.57
2017-12-10T16:13:47.944Z,7.67
2017-12-10T16:16:17.433Z,7.60
2017-12-10T16:18:46.943Z,4.03
2017-12-10T16:21:17.197Z,6.00
2017-12-10T16:23:46.772Z,12.33
2017-12-10T16:26:16.264Z,5.15
2017-12-10T16:28:45.793Z,10.20
2017-12-10T16:31:15.365Z,18.50
2017-12-10T16:33:44.912Z,14.53
2017-12-10T16:36:14.456Z,15.03
2017-12-10T16:38:43.956Z,14.37
2017-12-10T16:41:13.603Z,16.37
2017-12-10T16:43:43.168Z,16.10
2017-12-10T16:46:12.689Z,16.63
2017-12-10T16:48:42.182Z,19.33
2017-12-10T16:51:11.717Z,15.33
2017-12-10T16:53:41.229Z,15.57
2017-12-10T16:56:10.777Z,16.13
2017-12-10T16:58:40.347Z,17.17
2017-12-10T17:01:09.859Z,14.77
2017-12-10T17:03:39.388Z,12.20
2017-12-10T17:06:08.932Z,12.23
2017-12-10T17:08:38.429Z,16.48
2017-12-10T17:11:08.049Z,16.20
2017-12-10T17:13:37.567Z,15.50
2017-12-10T17:16:07.191Z,10.20
2017-12-10T17:18:36.719Z,13.60
2017-12-10T17:21:06.224Z,17.17
2017-12-10T17:23:35.748Z,14.77
2017-12-10T17:26:05.272Z,15.55
2017-12-10T17:28:34.806Z,16.05
2017-12-10T17:31:04.320Z,14.05
2017-12-10T17:33:33.887Z,13.70
2017-12-10T17:36:03.424Z,16.10
2017-12-10T17:38:33.004Z,12.82
2017-12-10T17:41:02.584Z,12.48
2017-12-10T17:43:32.141Z,13.93
2017-12-10T17:46:01.629Z,10.43
2017-12-10T17:48:31.159Z,20.90
2017-12-10T17:51:00.699Z,13.38
2017-12-10T17:53:30.194Z,12.95
2017-12-10T17:55:59.768Z,11.30
2017-12-10T17:58:29.230Z,12.40
2017-12-10T18:00:58.758Z,12.00
2017-12-10T18:03:28.254Z,10.73
2017-12-10T18:05:57.785Z,11.10
2017-12-10T18:08:27.273Z,9.80
2017-12-10T18:10:56.773Z,12.02
2017-12-10T18:13:26.308Z,7.85
2017-12-10T18:15:55.809Z,7.93
2017-12-10T18:18:26.061Z,9.95
2017-12-10T18:20:55.577Z,13.05
2017-12-10T18:23:25.084Z,14.32
2017-12-10T18:25:54.812Z,9.10
2017-12-10T18:28:24.284Z,9.98
2017-12-10T18:30:53.819Z,13.55
2017-12-10T18:33:23.396Z,13.52
2017-12-10T18:35:52.884Z,11.45
2017-12-10T18:38:22.390Z,10.13
2017-12-10T18:40:51.932Z,8.48
2017-12-10T18:43:21.560Z,12.77
2017-12-10T18:45:51.174Z,9.35
2017-12-10T18:48:20.712Z,7.87
2017-12-10T18:50:50.217Z,8.95
2017-12-10T18:53:19.833Z,10.82
2017-12-10T18:55:49.304Z,7.28
2017-12-10T18:58:18.882Z,7.68
2017-12-10T19:00:48.508Z,11.68
2017-12-10T19:03:18.053Z,9.15
2017-12-10T19:05:47.682Z,7.75
2017-12-10T19:08:17.177Z,7.10
2017-12-10T19:10:46.720Z,9.27
2017-12-10T19:13:16.278Z,7.87
2017-12-10T19:15:45.855Z,7.68
2017-12-10T19:18:15.329Z,8.85
2017-12-10T19:20:44.850Z,8.80
2017-12-10T19:23:14.601Z,7.82
2017-12-10T19:25:44.163Z,8.50
2017-12-10T19:28:13.711Z,6.50
2017-12-10T19:30:45.216Z,8.20
2017-12-10T19:33:14.711Z,12.35
2017-12-10T19:35:44.236Z,7.55
2017-12-10T19:38:13.775Z,7.45
2017-12-10T19:40:43.295Z,15.27
2017-12-10T19:43:12.838Z,9.70
2017-12-10T19:45:42.401Z,11.43
2017-12-10T19:48:11.977Z,8.52
2017-12-10T19:50:41.476Z,6.53
2017-12-10T19:53:11.049Z,6.00
2017-12-10T19:55:40.640Z,8.48
2017-12-10T19:58:10.292Z,6.70
2017-12-10T20:00:39.819Z,7.57
2017-12-10T20:03:09.325Z,7.05
2017-12-10T20:05:38.971Z,7.90
2017-12-10T20:08:08.539Z,8.02
2017-12-10T20:10:38.241Z,8.10
2017-12-10T20:13:07.779Z,9.10
2017-12-10T20:15:37.281Z,7.12
2017-12-10T20:18:06.859Z,9.13
2017-12-10T20:20:36.385Z,6.93
2017-12-10T20:23:05.961Z,8.38
2017-12-10T20:25:35.515Z,9.43
2017-12-10T20:28:05.190Z,8.85
2017-12-10T20:30:34.753Z,8.45
2017-12-10T20:33:04.338Z,8.00
2017-12-10T20:35:33.892Z,7.07
2017-12-10T20:38:03.470Z,7.75
2017-12-10T20:40:33.057Z,7.03
2017-12-10T20:43:02.579Z,9.55
2017-12-10T20:45:32.112Z,8.00
2017-12-10T20:48:01.796Z,11.30
2017-12-10T20:50:31.350Z,9.43
2017-12-10T20:53:00.849Z,10.73
2017-12-10T20:55:30.411Z,9.05
2017-12-10T20:58:00.048Z,7.43
2017-12-10T21:00:29.658Z,9.15
2017-12-10T21:02:59.272Z,12.75
2017-12-10T21:05:28.771Z,9.15
2017-12-10T21:07:58.315Z,8.05
2017-12-10T21:10:27.842Z,6.65
2017-12-10T21:12:57.458Z,7.30
2017-12-10T21:15:27.112Z,8.65
2017-12-10T21:17:56.646Z,8.77
2017-12-10T21:20:26.145Z,7.40
2017-12-10T21:22:55.653Z,9.80
2017-12-10T21:25:25.144Z,7.05
2017-12-10T21:27:55.620Z,11.32
2017-12-10T21:30:25.112Z,8.65
2017-12-10T21:32:54.851Z,8.55
2017-12-10T21:35:25.233Z,5.35
2017-12-10T21:37:54.736Z,7.37
2017-12-10T21:40:24.234Z,7.40
2017-12-10T21:42:53.922Z,9.88
2017-12-10T21:45:23.398Z,7.85
2017-12-10T21:47:52.924Z,6.43
2017-12-10T21:50:22.413Z,7.57
2017-12-10T21:52:51.957Z,6.30
2017-12-10T21:55:21.440Z,6.00
2017-12-10T21:57:50.965Z,6.25
2017-12-10T22:00:20.468Z,7.57
2017-12-10T22:02:49.986Z,5.37
2017-12-10T22:05:19.476Z,5.82
2017-12-10T22:07:48.994Z,6.68
2017-12-10T22:10:18.485Z,8.10
2017-12-10T22:12:48.013Z,5.25
2017-12-10T22:15:17.499Z,5.57
2017-12-10T22:17:47.063Z,7.07
2017-12-10T22:20:16.560Z,7.47
2017-12-10T22:22:46.078Z,7.87
2017-12-10T22:25:15.837Z,9.00
2017-12-10T22:27:45.325Z,6.15
2017-12-10T22:30:14.834Z,5.87
2017-12-10T22:32:44.319Z,5.82
2017-12-10T22:35:13.849Z,4.72
2017-12-10T22:37:44.083Z,6.28
2017-12-10T22:40:13.553Z,6.70
2017-12-10T22:42:43.066Z,8.25
2017-12-10T22:45:12.523Z,6.68
2017-12-10T22:47:42.100Z,5.65
2017-12-10T22:50:11.563Z,5.72
2017-12-10T22:52:41.115Z,6.15
2017-12-10T22:55:10.620Z,5.37
2017-12-10T22:57:40.171Z,7.47
2017-12-10T23:00:09.672Z,6.45
2017-12-10T23:02:39.205Z,6.15
2017-12-10T23:05:08.706Z,7.80
2017-12-10T23:07:38.196Z,5.12
2017-12-10T23:10:07.706Z,5.93
2017-12-10T23:12:43.070Z,5.90
2017-12-10T23:15:14.302Z,5.90
2017-12-10T23:17:43.801Z,4.97
2017-12-10T23:20:13.292Z,7.30
2017-12-10T23:22:42.807Z,5.03
2017-12-10T23:25:12.320Z,5.65
2017-12-10T23:27:41.837Z,5.15
2017-12-10T23:30:11.340Z,4.37
2017-12-10T23:32:40.839Z,5.25
2017-12-10T23:35:10.362Z,4.37
2017-12-10T23:37:39.835Z,6.82
2017-12-10T23:40:09.369Z,5.18
2017-12-10T23:42:38.842Z,4.87
2017-12-10T23:45:08.366Z,6.22
2017-12-10T23:47:37.822Z,5.28
2017-12-10T23:50:07.410Z,5.53
2017-12-10T23:52:36.910Z,4.40
2017-12-10T23:55:06.420Z,3.67
2017-12-10T23:57:35.933Z,5.32
